KMCO/MCO METAR and TAF weather

Enter ICAO airport designator
Station Type Date Time Source
KMCO METAR 2019/04/26 03:53 UTC NOAA

KMCO 260353Z 18006KT 10SM FEW055 SCT250 22/18 A2996 RMK AO2 SLP145 T02220178


Station Type Date Time Source
KMCO Decoded METAR 2019/04/26 03:53 UTC NOAA

ORLANDO INTERNATIONAL AIRPORT , FL, United States (KMCO) 28-25N 81-20W 29M
Apr 25, 2019 - 11:53 PM EDT / 2019.04.26 0353 UTC
Wind: from the S (180 degrees) at 7 MPH (6 KT):0
Visibility: 10 mile(s):0
Sky conditions: partly cloudy
Temperature: 72.0 F (22.2 C)
Dew Point: 64.0 F (17.8 C)
Relative Humidity: 76%
Pressure (altimeter): 29.96 in. Hg (1014 hPa)
ob: KMCO 260353Z 18006KT 10SM FEW055 SCT250 22/18 A2996 RMK AO2 SLP145 T02220178
cycle: 4

Station Type Date Time Source
KMCO TAF 2019/04/26 03:52 UTC NOAA

TAF
AMD KMCO 260250Z 2603/2706 20007KT P6SM FEW050 BKN250
FM261200 19010G15KT P6SM SCT020 SCT120 BKN250
FM261400 23017G24KT P6SM VCTS SCT025CB BKN040 BKN120
FM261900 26015G22KT P6SM SCT050 BKN250
FM270000 26009KT P6SM FEW020

Example: see airport list